Betancuria — EAMH — position and weather

sailwx.info

Track history (hours):
 
Tides and Currents Weather Stations Pressure Air Temp Water Temp Dewpoint Dewpoint Depression Visibility Wind Speed Wind Dir Waves Ship Positions

Betancuria

Last reported at 2016-Jun-21 21:20 UTC. Time now 2016-Jun-29 09:16 UTC.
Position N 36°57' E 002°34'.

Length 141 m; draft 4.7 m.

Type: Ship. MMSI: 224471000.

Date/timePositionNaut miles runAvg speedWind from/ knotsBaromVisibWave heightAir tempDewpointWater temp
2016-Jun-21 21:20N 36°57' E 002°34'7910.1
2016-Jun-21 13:28N 36°43' E 000°56'5510.3
2016-Jun-21 08:05N 36°33' W 000°12'1011.1
2016-Jun-21 07:09N 36°31' W 000°24'2710.5
2016-Jun-21 04:33N 36°27' W 000°58'5510.4
2016-Jun-20 23:13N 36°17' W 002°06'1010.4
2016-Jun-20 22:17N 36°16' W 002°17'1110.2
2016-Jun-20 21:13N 36°15' W 002°31'810.5
2016-Jun-20 20:28N 36°13' W 002°40'1010.6
2016-Jun-20 19:33N 36°13' W 002°52'1310.3
2016-Jun-20 18:20N 36°12' W 003°08'10511.4
2016-Jun-20 09:08N 36°04' W 005°17'5 9.2
2016-Jun-20 08:33N 36°05' W 005°23'7 6.5
2016-Jun-20 07:31N 35°58' W 005°26'3611.2
2016-Jun-20 04:18N 35°54' W 006°10'8310.7
2016-Jun-19 20:34N 36°16' W 007°49'1111.0
2016-Jun-19 19:34N 36°19' W 008°02'1610.7
2016-Jun-19 18:04N 36°23' W 008°21'610.6
2016-Jun-19 17:31N 36°24' W 008°28'2310.8
2016-Jun-19 15:20N 36°30' W 008°56'810.8
2016-Jun-19 14:33N 36°33' W 009°06'1010.5
2016-Jun-19 13:33N 36°36' W 009°18'1110.7
2016-Jun-19 12:33N 36°44' W 009°27'1010.1
2016-Jun-19 11:33N 36°53' W 009°33'1110.8
2016-Jun-19 10:33N 37°04' W 009°36'1110.8
2016-Jun-19 09:33N 37°14' W 009°39'1110.9
2016-Jun-19 08:34N 37°25' W 009°41'1110.5
2016-Jun-19 07:33N 37°35' W 009°45'1010.5
2016-Jun-19 06:33N 37°45' W 009°48'1010.4
2016-Jun-19 05:33N 37°56' W 009°52'1010.3
2016-Jun-19 04:33N 38°06' W 009°55'1210.2
2016-Jun-19 03:21N 38°18' W 009°58'810.3
2016-Jun-19 02:34N 38°26' W 010°00'1310.5
2016-Jun-19 01:20N 38°38' W 010°04'348 7.9
2016-Jun-17 05:29N 43°45' W 006°26'9 9.1
2016-Jun-17 04:30N 43°44' W 006°13'9 8.9
2016-Jun-17 03:32N 43°43' W 006°01'8 8.4
2016-Jun-17 02:33N 43°42' W 005°50'8 7.8
2016-Jun-17 01:33N 43°38' W 005°41'4 3.6
2016-Jun-17 00:31N 43°34' W 005°42'0 0.0
2016-Jun-16 20:19N 43°34' W 005°42'0 0.0
2016-Jun-16 19:31N 43°34' W 005°42'0 0.0
2016-Jun-16 18:31N 43°34' W 005°42'0 0.0
2016-Jun-16 17:25N 43°34' W 005°42'0 0.0
2016-Jun-16 16:25N 43°34' W 005°42'0 0.0
2016-Jun-16 15:31N 43°34' W 005°42'0 0.0
2016-Jun-16 14:19N 43°34' W 005°42'0 0.0
2016-Jun-16 13:31N 43°34' W 005°42'0 0.0
2016-Jun-16 12:19N 43°34' W 005°42'0 0.0
2016-Jun-16 11:25N 43°34' W 005°42'0 0.0
2016-Jun-16 09:31N 43°34' W 005°42'0 0.0
2016-Jun-16 08:31N 43°34' W 005°42'0 0.0
2016-Jun-16 07:31N 43°34' W 005°42'0 0.0
2016-Jun-16 06:31N 43°34' W 005°42'0 0.0
2016-Jun-16 04:31N 43°34' W 005°42'0 0.0
2016-Jun-16 03:31N 43°34' W 005°42'0 0.0
2016-Jun-16 02:31N 43°34' W 005°42'0 0.0
2016-Jun-16 01:31N 43°34' W 005°42'0 0.0
2016-Jun-16 00:31N 43°34' W 005°42'0 0.0
2016-Jun-15 23:31N 43°34' W 005°42'0 0.0
2016-Jun-15 22:31N 43°34' W 005°42'0 0.0
2016-Jun-15 21:31N 43°34' W 005°42'0 0.0
2016-Jun-15 19:31N 43°34' W 005°42'0 0.0
2016-Jun-15 18:31N 43°34' W 005°42'0 0.0
2016-Jun-15 17:31N 43°34' W 005°42'0 0.0
2016-Jun-15 16:31N 43°34' W 005°42'0 0.0
2016-Jun-15 15:31N 43°34' W 005°42'0 0.0
2016-Jun-15 14:31N 43°34' W 005°42'0 0.0
2016-Jun-15 13:31N 43°34' W 005°42'0 0.0
2016-Jun-15 12:31N 43°34' W 005°42'0 0.0
2016-Jun-15 11:19N 43°34' W 005°42'0 0.0
2016-Jun-15 10:31N 43°34' W 005°42'0 0.0
2016-Jun-15 09:31N 43°34' W 005°42'0 0.0
2016-Jun-15 07:25N 43°34' W 005°42'0 0.0
2016-Jun-15 06:25N 43°34' W 005°42'0 0.0
2016-Jun-15 05:31N 43°34' W 005°42'0 0.0
2016-Jun-15 04:31N 43°34' W 005°42'0 0.0
2016-Jun-15 03:31N 43°34' W 005°42'0 0.0
2016-Jun-15 02:31N 43°34' W 005°42'0 0.0
2016-Jun-15 01:19N 43°34' W 005°42'2 0.2
2016-Jun-14 14:10N 43°36' W 005°41'0 0.0
2016-Jun-14 13:33N 43°36' W 005°41'8 8.0
2016-Jun-14 12:33N 43°42' W 005°34'4 2.7
2016-Jun-14 11:16N 43°46' W 005°34'4 3.9
2016-Jun-14 10:23N 43°46' W 005°39'3 3.0
2016-Jun-14 09:33N 43°46' W 005°43'1 1.1
2016-Jun-14 08:33N 43°46' W 005°41'1 1.3
2016-Jun-14 07:33N 43°46' W 005°39'1 0.5
2016-Jun-14 05:33N 43°45' W 005°38'4 3.7
2016-Jun-14 04:33N 43°46' W 005°43'4 4.0
2016-Jun-14 03:33N 43°46' W 005°49'1 0.9
2016-Jun-14 02:33N 43°47' W 005°48'2 1.7
2016-Jun-14 01:33N 43°47' W 005°46'2 1.5
2016-Jun-14 00:33N 43°47' W 005°44'3 0.7
2016-Jun-13 20:31N 43°46' W 005°41'5 4.7
2016-Jun-13 19:32N 43°46' W 005°47'2 1.8
2016-Jun-13 18:33N 43°47' W 005°49'3 3.3
2016-Jun-13 17:33N 43°46' W 005°45'3 3.4
2016-Jun-13 16:33N 43°45' W 005°40'3 2.9
2016-Jun-13 15:33N 43°46' W 005°37'1 1.4
2016-Jun-13 14:33N 43°45' W 005°36'3 2.6
2016-Jun-13 13:21N 43°45' W 005°40'2 2.0
2016-Jun-13 12:32N 43°45' W 005°42'2 1.6
2016-Jun-13 11:33N 43°46' W 005°40'2 2.1
2016-Jun-13 10:33N 43°46' W 005°38'6 5.7
2016-Jun-13 09:32N 43°45' W 005°46'8 7.8
2016-Jun-13 08:33N 43°44' W 005°56'8 8.0
2016-Jun-13 07:33N 43°44' W 006°07'9 9.0
2016-Jun-13 06:32N 43°45' W 006°20'  
Track history (hours):
 
Tides and Currents Weather Stations Pressure Air Temp Water Temp Dewpoint Dewpoint Depression Visibility Wind Speed Wind Dir Waves Ship Positions

Betancuria

Last reported at 2016-Jun-21 21:20 UTC. Time now 2016-Jun-29 09:16 UTC.
Position N 36°57' E 002°34'.

Length 141 m; draft 4.7 m.

Type: Ship. MMSI: 224471000.

Date/timePositionNaut miles runAvg speedWind from/ knotsBaromVisibWave heightAir tempDewpointWater temp
2016-Jun-21 21:20N 36°57' E 002°34'7910.1
2016-Jun-21 13:28N 36°43' E 000°56'5510.3
2016-Jun-21 08:05N 36°33' W 000°12'1011.1
2016-Jun-21 07:09N 36°31' W 000°24'2710.5
2016-Jun-21 04:33N 36°27' W 000°58'5510.4
2016-Jun-20 23:13N 36°17' W 002°06'1010.4
2016-Jun-20 22:17N 36°16' W 002°17'1110.2
2016-Jun-20 21:13N 36°15' W 002°31'810.5
2016-Jun-20 20:28N 36°13' W 002°40'1010.6
2016-Jun-20 19:33N 36°13' W 002°52'1310.3
2016-Jun-20 18:20N 36°12' W 003°08'10511.4
2016-Jun-20 09:08N 36°04' W 005°17'5 9.2
2016-Jun-20 08:33N 36°05' W 005°23'7 6.5
2016-Jun-20 07:31N 35°58' W 005°26'3611.2
2016-Jun-20 04:18N 35°54' W 006°10'8310.7
2016-Jun-19 20:34N 36°16' W 007°49'1111.0
2016-Jun-19 19:34N 36°19' W 008°02'1610.7
2016-Jun-19 18:04N 36°23' W 008°21'610.6
2016-Jun-19 17:31N 36°24' W 008°28'2310.8
2016-Jun-19 15:20N 36°30' W 008°56'810.8
2016-Jun-19 14:33N 36°33' W 009°06'1010.5
2016-Jun-19 13:33N 36°36' W 009°18'1110.7
2016-Jun-19 12:33N 36°44' W 009°27'1010.1
2016-Jun-19 11:33N 36°53' W 009°33'1110.8
2016-Jun-19 10:33N 37°04' W 009°36'1110.8
2016-Jun-19 09:33N 37°14' W 009°39'1110.9
2016-Jun-19 08:34N 37°25' W 009°41'1110.5
2016-Jun-19 07:33N 37°35' W 009°45'1010.5
2016-Jun-19 06:33N 37°45' W 009°48'1010.4
2016-Jun-19 05:33N 37°56' W 009°52'1010.3
2016-Jun-19 04:33N 38°06' W 009°55'1210.2
2016-Jun-19 03:21N 38°18' W 009°58'810.3
2016-Jun-19 02:34N 38°26' W 010°00'1310.5
2016-Jun-19 01:20N 38°38' W 010°04'348 7.9
2016-Jun-17 05:29N 43°45' W 006°26'9 9.1
2016-Jun-17 04:30N 43°44' W 006°13'9 8.9
2016-Jun-17 03:32N 43°43' W 006°01'8 8.4
2016-Jun-17 02:33N 43°42' W 005°50'8 7.8
2016-Jun-17 01:33N 43°38' W 005°41'4 3.6
2016-Jun-17 00:31N 43°34' W 005°42'0 0.0
2016-Jun-16 20:19N 43°34' W 005°42'0 0.0
2016-Jun-16 19:31N 43°34' W 005°42'0 0.0
2016-Jun-16 18:31N 43°34' W 005°42'0 0.0
2016-Jun-16 17:25N 43°34' W 005°42'0 0.0
2016-Jun-16 16:25N 43°34' W 005°42'0 0.0
2016-Jun-16 15:31N 43°34' W 005°42'0 0.0
2016-Jun-16 14:19N 43°34' W 005°42'0 0.0
2016-Jun-16 13:31N 43°34' W 005°42'0 0.0
2016-Jun-16 12:19N 43°34' W 005°42'0 0.0
2016-Jun-16 11:25N 43°34' W 005°42'0 0.0
2016-Jun-16 09:31N 43°34' W 005°42'0 0.0
2016-Jun-16 08:31N 43°34' W 005°42'0 0.0
2016-Jun-16 07:31N 43°34' W 005°42'0 0.0
2016-Jun-16 06:31N 43°34' W 005°42'0 0.0
2016-Jun-16 04:31N 43°34' W 005°42'0 0.0
2016-Jun-16 03:31N 43°34' W 005°42'0 0.0
2016-Jun-16 02:31N 43°34' W 005°42'0 0.0
2016-Jun-16 01:31N 43°34' W 005°42'0 0.0
2016-Jun-16 00:31N 43°34' W 005°42'0 0.0
2016-Jun-15 23:31N 43°34' W 005°42'0 0.0
2016-Jun-15 22:31N 43°34' W 005°42'0 0.0
2016-Jun-15 21:31N 43°34' W 005°42'0 0.0
2016-Jun-15 19:31N 43°34' W 005°42'0 0.0
2016-Jun-15 18:31N 43°34' W 005°42'0 0.0
2016-Jun-15 17:31N 43°34' W 005°42'0 0.0
2016-Jun-15 16:31N 43°34' W 005°42'0 0.0
2016-Jun-15 15:31N 43°34' W 005°42'0 0.0
2016-Jun-15 14:31N 43°34' W 005°42'0 0.0
2016-Jun-15 13:31N 43°34' W 005°42'0 0.0
2016-Jun-15 12:31N 43°34' W 005°42'0 0.0
2016-Jun-15 11:19N 43°34' W 005°42'0 0.0
2016-Jun-15 10:31N 43°34' W 005°42'0 0.0
2016-Jun-15 09:31N 43°34' W 005°42'0 0.0
2016-Jun-15 07:25N 43°34' W 005°42'0 0.0
2016-Jun-15 06:25N 43°34' W 005°42'0 0.0
2016-Jun-15 05:31N 43°34' W 005°42'0 0.0
2016-Jun-15 04:31N 43°34' W 005°42'0 0.0
2016-Jun-15 03:31N 43°34' W 005°42'0 0.0
2016-Jun-15 02:31N 43°34' W 005°42'0 0.0
2016-Jun-15 01:19N 43°34' W 005°42'2 0.2
2016-Jun-14 14:10N 43°36' W 005°41'0 0.0
2016-Jun-14 13:33N 43°36' W 005°41'8 8.0
2016-Jun-14 12:33N 43°42' W 005°34'4 2.7
2016-Jun-14 11:16N 43°46' W 005°34'4 3.9
2016-Jun-14 10:23N 43°46' W 005°39'3 3.0
2016-Jun-14 09:33N 43°46' W 005°43'1 1.1
2016-Jun-14 08:33N 43°46' W 005°41'1 1.3
2016-Jun-14 07:33N 43°46' W 005°39'1 0.5
2016-Jun-14 05:33N 43°45' W 005°38'4 3.7
2016-Jun-14 04:33N 43°46' W 005°43'4 4.0
2016-Jun-14 03:33N 43°46' W 005°49'1 0.9
2016-Jun-14 02:33N 43°47' W 005°48'2 1.7
2016-Jun-14 01:33N 43°47' W 005°46'2 1.5
2016-Jun-14 00:33N 43°47' W 005°44'3 0.7
2016-Jun-13 20:31N 43°46' W 005°41'5 4.7
2016-Jun-13 19:32N 43°46' W 005°47'2 1.8
2016-Jun-13 18:33N 43°47' W 005°49'3 3.3
2016-Jun-13 17:33N 43°46' W 005°45'3 3.4
2016-Jun-13 16:33N 43°45' W 005°40'3 2.9
2016-Jun-13 15:33N 43°46' W 005°37'1 1.4
2016-Jun-13 14:33N 43°45' W 005°36'3 2.6
2016-Jun-13 13:21N 43°45' W 005°40'2 2.0
2016-Jun-13 12:32N 43°45' W 005°42'2 1.6
2016-Jun-13 11:33N 43°46' W 005°40'2 2.1
2016-Jun-13 10:33N 43°46' W 005°38'6 5.7
2016-Jun-13 09:32N 43°45' W 005°46'8 7.8
2016-Jun-13 08:33N 43°44' W 005°56'8 8.0
2016-Jun-13 07:33N 43°44' W 006°07'9 9.0
2016-Jun-13 06:32N 43°45' W 006°20'  

Dump ship's entire track history